Time;durP1;ratioP1;P1;durP2;ratioP2;P2;SDS_P1;SDS_P2;PMS_P1;PMS_P2;Temp;Humidity;BMP_temperature;BMP_pressure;BME280_temperature;BME280_humidity;BME280_pressure;Samples;Min_cycle;Max_cycle;Signal;HPM_P1;HPM_P2
2020/12/11 00:01:03;;;;;;;13.70;10.48;;;;;;;14.15;61.33;100565.53;4973615;28;20121;-48
2020/12/11 00:03:28;;;;;;;7.45;4.63;;;;;;;14.15;61.60;100560.13;4976084;28;20040;-48
2020/12/11 00:05:54;;;;;;;8.95;3.40;;;;;;;14.03;62.19;100541.50;4968126;28;20535;-44
2020/12/11 00:08:20;;;;;;;6.03;3.28;;;;;;;14.03;61.88;100525.31;4975070;28;20157;-48
2020/12/11 00:10:48;;;;;;;6.38;2.72;;;;;;;14.02;61.45;100518.31;4968775;28;20035;-44
2020/12/11 00:13:14;;;;;;;3.83;1.90;;;;;;;14.02;62.01;100525.59;4974903;28;20043;-47
2020/12/11 00:15:39;;;;;;;5.35;1.95;;;;;;;14.10;61.32;100525.06;4975592;28;20030;-45
2020/12/11 00:18:04;;;;;;;3.00;1.85;;;;;;;14.12;61.42;100526.41;4978276;28;20563;-43
2020/12/11 00:20:31;;;;;;;2.65;1.75;;;;;;;14.03;61.97;100519.13;4980196;28;20034;-47
2020/12/11 00:22:57;;;;;;;4.68;1.92;;;;;;;13.98;61.66;100525.31;4984888;28;20050;-45
2020/12/11 00:25:22;;;;;;;3.08;1.80;;;;;;;13.93;62.02;100519.91;4971740;28;20046;-46
2020/12/11 00:27:48;;;;;;;5.03;2.55;;;;;;;13.90;62.10;100526.66;4971163;28;20136;-43
2020/12/11 00:30:13;;;;;;;4.28;2.35;;;;;;;13.96;61.39;100519.38;4968833;28;20062;-46
2020/12/11 00:32:39;;;;;;;3.88;2.25;;;;;;;13.90;61.95;100517.75;4968858;28;20518;-46
2020/12/11 00:35:08;;;;;;;4.30;2.65;;;;;;;13.87;62.27;100513.72;4974515;28;20061;-47
2020/12/11 00:37:35;;;;;;;6.47;3.75;;;;;;;13.84;61.88;100522.31;4968414;28;20043;-44
2020/12/11 00:40:00;;;;;;;11.52;4.32;;;;;;;13.84;61.95;100508.84;4969418;28;20059;-48
2020/12/11 00:42:26;;;;;;;7.70;3.60;;;;;;;13.79;61.92;100498.84;4969461;28;20190;-44
2020/12/11 00:44:52;;;;;;;7.35;3.60;;;;;;;13.78;62.03;100485.69;4971278;28;20093;-47
2020/12/11 00:47:17;;;;;;;5.10;4.20;;;;;;;13.72;62.28;100481.34;4967684;28;20479;-45
2020/12/11 00:49:43;;;;;;;5.45;4.20;;;;;;;13.63;62.33;100480.25;4976886;28;20050;-46
2020/12/11 00:52:08;;;;;;;9.38;3.28;;;;;;;13.57;62.62;100482.94;4979609;28;20047;-43
2020/12/11 00:54:34;;;;;;;5.57;4.25;;;;;;;13.58;62.63;100487.22;4970305;28;20034;-44
2020/12/11 00:57:00;;;;;;;14.38;3.45;;;;;;;13.60;62.92;100485.09;4983304;28;20125;-44
2020/12/11 00:59:25;;;;;;;5.65;3.30;;;;;;;13.71;62.58;100488.63;4969966;28;20034;-42
2020/12/11 01:01:50;;;;;;;8.65;4.95;;;;;;;13.70;62.11;100489.69;4967677;28;20034;-47
2020/12/11 01:04:16;;;;;;;5.78;2.97;;;;;;;13.52;62.87;100501.75;4969178;28;20043;-45
2020/12/11 01:06:43;;;;;;;8.90;4.28;;;;;;;13.47;62.73;100501.75;4968240;28;20041;-48
2020/12/11 01:09:09;;;;;;;8.20;3.40;;;;;;;13.49;62.67;100498.78;4968281;28;20042;-43
2020/12/11 01:11:34;;;;;;;13.10;4.65;;;;;;;13.56;63.02;100499.34;4969184;28;20034;-46
2020/12/11 01:14:00;;;;;;;7.40;3.55;;;;;;;13.56;62.51;100505.53;4967164;28;20031;-49
2020/12/11 01:16:26;;;;;;;5.05;2.13;;;;;;;13.55;62.58;100501.25;4976566;28;20402;-43
2020/12/11 01:18:51;;;;;;;6.85;2.00;;;;;;;13.61;62.18;100508.25;4970813;28;20121;-46
2020/12/11 01:21:17;;;;;;;4.25;2.15;;;;;;;13.63;62.21;100520.66;4976598;28;20050;-46
2020/12/11 01:23:42;;;;;;;4.70;2.47;;;;;;;13.55;62.11;100519.25;4967928;28;20039;-45
2020/12/11 01:26:09;;;;;;;4.90;2.85;;;;;;;13.51;62.46;100526.25;4969014;28;20047;-45
2020/12/11 01:28:35;;;;;;;4.78;2.25;;;;;;;13.43;62.95;100522.22;4966923;28;20483;-44
2020/12/11 01:31:00;;;;;;;4.30;2.10;;;;;;;13.47;63.16;100535.97;4971913;28;20042;-46
2020/12/11 01:33:26;;;;;;;15.80;3.58;;;;;;;13.51;62.55;100534.34;4972268;28;20787;-44
2020/12/11 01:35:52;;;;;;;4.78;1.98;;;;;;;13.53;62.29;100526.81;4970726;28;20092;-43
2020/12/11 01:38:17;;;;;;;5.10;1.52;;;;;;;13.63;61.97;100529.53;4972950;28;20488;-46
2020/12/11 01:40:44;;;;;;;2.83;1.15;;;;;;;13.59;61.10;100541.94;4974652;28;20054;-45
2020/12/11 01:43:10;;;;;;;6.28;1.70;;;;;;;13.53;61.70;100554.53;4972440;28;20100;-47
2020/12/11 01:45:36;;;;;;;2.05;1.27;;;;;;;13.55;61.47;100567.75;4972366;28;20039;-48
2020/12/11 01:48:01;;;;;;;10.60;1.80;;;;;;;13.58;60.53;100559.16;4971227;28;20677;-47
2020/12/11 01:50:27;;;;;;;2.25;0.85;;;;;;;13.75;59.96;100550.88;4986088;28;20054;-45
2020/12/11 01:52:52;;;;;;;1.17;0.82;;;;;;;13.82;60.00;100550.63;4980648;28;20424;-50
2020/12/11 01:55:18;;;;;;;0.47;0.28;;;;;;;13.78;59.48;100555.72;4979228;28;20613;-45
2020/12/11 01:57:58;;;;;;;6.95;1.65;;;;;;;13.71;59.45;100544.38;4971405;28;20043;-45
2020/12/11 02:00:23;;;;;;;5.88;0.77;;;;;;;13.62;60.16;100557.53;4985120;28;20034;-45
2020/12/11 02:03:02;;;;;;;4.40;0.88;;;;;;;13.55;60.25;100557.81;4970431;28;20086;-46
2020/12/11 02:05:27;;;;;;;1.42;0.70;;;;;;;13.63;60.08;100558.38;4972973;28;20073;-42
2020/12/11 02:07:53;;;;;;;1.48;0.55;;;;;;;13.69;59.41;100557.28;4970496;28;20077;-48
2020/12/11 02:10:18;;;;;;;2.13;0.70;;;;;;;13.57;60.44;100550.28;4973295;28;20043;-47
2020/12/11 02:12:44;;;;;;;4.22;0.35;;;;;;;13.60;59.73;100528.19;4986316;28;20035;-42
2020/12/11 02:15:09;;;;;;;1.55;0.75;;;;;;;13.65;60.14;100516.59;4988122;28;20429;-45
2020/12/11 02:17:38;;;;;;;2.95;1.30;;;;;;;13.67;60.29;100510.97;4981548;28;20118;-47
2020/12/11 02:20:03;;;;;;;7.50;2.40;;;;;;;13.58;60.82;100497.19;4986105;28;20035;-43
2020/12/11 02:22:29;;;;;;;2.20;1.17;;;;;;;13.43;61.24;100509.53;4975875;28;20062;-43
2020/12/11 02:24:54;;;;;;;6.32;2.25;;;;;;;13.47;61.17;100515.22;4982944;28;20088;-44
2020/12/11 02:27:20;;;;;;;2.88;1.33;;;;;;;13.50;60.73;100501.22;4976009;28;20537;-43
2020/12/11 02:29:45;;;;;;;1.80;0.90;;;;;;;13.48;61.25;100481.81;4985789;28;20474;-43
2020/12/11 02:32:14;;;;;;;1.95;0.85;;;;;;;13.42;61.51;100470.22;4982856;28;20530;-48
2020/12/11 02:34:43;;;;;;;3.22;1.38;;;;;;;13.49;60.90;100461.09;4988478;28;20068;-43
2020/12/11 02:37:13;;;;;;;3.92;1.17;;;;;;;13.53;60.75;100470.25;4982980;28;20045;-43
2020/12/11 02:39:39;;;;;;;0.55;0.45;;;;;;;13.60;60.74;100482.41;4973531;28;20050;-46
2020/12/11 02:42:06;;;;;;;3.17;1.50;;;;;;;13.50;61.77;100473.47;4978340;28;20043;-45
2020/12/11 02:44:32;;;;;;;4.90;1.05;;;;;;;13.49;60.96;100469.97;4974509;28;20043;-44
2020/12/11 02:46:57;;;;;;;0.88;0.60;;;;;;;13.46;61.85;100459.72;4984175;28;20049;-43
2020/12/11 02:49:23;;;;;;;2.78;1.00;;;;;;;13.48;61.42;100452.19;4993732;28;20061;-43
2020/12/11 02:51:49;;;;;;;4.07;2.15;;;;;;;13.43;61.87;100457.56;4984312;28;20069;-46
2020/12/11 02:54:14;;;;;;;0.68;0.30;;;;;;;13.49;61.13;100455.69;4972318;28;20049;-46
2020/12/11 02:56:39;;;;;;;3.58;1.23;;;;;;;13.45;61.75;100455.41;4985854;28;20578;-47
2020/12/11 02:59:05;;;;;;;2.88;1.33;;;;;;;13.58;61.41;100451.41;4971685;28;20395;-45
2020/12/11 03:01:31;;;;;;;11.00;2.47;;;;;;;13.54;61.00;100442.25;4978666;28;20041;-47
2020/12/11 03:03:56;;;;;;;15.10;1.90;;;;;;;13.65;60.26;100435.00;4972400;28;20077;-43
2020/12/11 03:06:29;;;;;;;2.50;1.30;;;;;;;13.82;59.81;100429.34;4985464;28;20034;-43
2020/12/11 03:08:54;;;;;;;4.07;0.50;;;;;;;13.74;59.23;100431.47;4971813;28;20086;-44
2020/12/11 03:11:20;;;;;;;0.93;0.50;;;;;;;13.64;60.02;100417.19;4977405;28;20707;-43
2020/12/11 03:13:46;;;;;;;1.85;0.90;;;;;;;13.69;61.43;100412.66;4978883;28;20069;-45
2020/12/11 03:16:12;;;;;;;1.80;0.90;;;;;;;13.70;61.31;100400.78;4977282;28;20045;-44
2020/12/11 03:18:37;;;;;;;3.50;1.42;;;;;;;13.76;61.33;100410.50;4972859;28;20536;-44
2020/12/11 03:21:03;;;;;;;1.10;0.73;;;;;;;13.70;61.57;100413.44;4981815;28;20464;-44
2020/12/11 03:23:28;;;;;;;6.28;1.25;;;;;;;13.61;62.26;100399.69;4974385;28;20038;-48
2020/12/11 03:25:54;;;;;;;4.32;1.40;;;;;;;13.69;61.93;100392.94;4974461;28;20507;-46
2020/12/11 03:28:19;;;;;;;3.17;0.40;;;;;;;13.55;60.61;100409.66;4983437;28;20038;-47
2020/12/11 03:30:45;;;;;;;3.03;0.68;;;;;;;13.58;61.54;100413.69;4974835;28;20043;-45
2020/12/11 03:33:10;;;;;;;2.78;1.40;;;;;;;13.82;60.46;100405.09;4975353;28;20035;-43
2020/12/11 03:35:36;;;;;;;4.20;0.88;;;;;;;13.79;59.57;100395.66;4980605;28;20443;-44
2020/12/11 03:38:03;;;;;;;1.17;0.43;;;;;;;13.75;59.75;100400.78;4987610;28;20057;-44
2020/12/11 03:40:28;;;;;;;3.33;1.10;;;;;;;13.79;59.87;100396.47;4986401;28;20069;-47
2020/12/11 03:42:54;;;;;;;5.93;1.65;;;;;;;13.82;59.75;100392.44;4992781;28;20067;-47
2020/12/11 03:45:19;;;;;;;3.35;1.30;;;;;;;13.77;59.65;100376.25;4984075;28;20531;-46
2020/12/11 03:47:45;;;;;;;2.30;1.33;;;;;;;13.77;59.70;100371.69;4971749;28;20043;-47
2020/12/11 03:50:10;;;;;;;2.83;0.50;;;;;;;13.84;60.15;100357.94;4980107;28;20132;-46
2020/12/11 03:52:36;;;;;;;1.63;1.30;;;;;;;13.96;59.94;100357.66;4975320;28;20038;-46
2020/12/11 03:55:01;;;;;;;4.32;0.75;;;;;;;13.83;59.65;100345.53;4985502;28;20124;-47
2020/12/11 03:57:27;;;;;;;1.40;0.47;;;;;;;13.73;60.23;100349.06;4973919;28;20081;-43
2020/12/11 03:59:52;;;;;;;3.30;1.20;;;;;;;13.75;59.58;100336.13;4974179;28;20061;-45
2020/12/11 04:02:18;;;;;;;2.88;0.90;;;;;;;13.73;59.89;100326.69;4973921;28;20093;-48
2020/12/11 04:04:43;;;;;;;2.92;0.65;;;;;;;13.77;61.48;100319.69;4973142;28;20039;-43
2020/12/11 04:07:09;;;;;;;6.15;1.63;;;;;;;13.75;62.72;100335.31;4975879;28;20053;-50
2020/12/11 04:09:35;;;;;;;4.63;1.15;;;;;;;13.76;63.18;100318.06;4972858;28;20129;-44
2020/12/11 04:12:00;;;;;;;1.25;0.73;;;;;;;13.71;63.24;100313.50;4976232;28;20455;-46
2020/12/11 04:14:26;;;;;;;1.55;0.80;;;;;;;13.70;62.68;100308.38;4971575;28;20043;-43
2020/12/11 04:16:52;;;;;;;2.83;1.20;;;;;;;13.75;62.40;100301.09;4976904;28;20035;-43
2020/12/11 04:19:17;;;;;;;1.30;0.88;;;;;;;13.82;62.16;100300.03;4970782;28;20063;-46
2020/12/11 04:21:50;;;;;;;7.47;1.90;;;;;;;13.71;62.77;100296.50;4976198;28;20043;-49
2020/12/11 04:24:16;;;;;;;1.98;0.68;;;;;;;13.78;62.41;100291.66;4970504;28;20224;-43
2020/12/11 04:26:42;;;;;;;1.83;0.98;;;;;;;13.83;61.16;100299.72;4977412;28;20109;-45
2020/12/11 04:29:08;;;;;;;1.27;0.47;;;;;;;13.91;59.88;100290.28;4970433;28;20042;-46
2020/12/11 04:31:33;;;;;;;0.77;0.55;;;;;;;14.01;59.10;100292.97;4977647;28;20031;-46
2020/12/11 04:33:59;;;;;;;6.25;1.65;;;;;;;13.99;60.46;100297.84;4970556;28;20487;-45
2020/12/11 04:36:24;;;;;;;0.47;0.35;;;;;;;14.03;60.35;100290.00;4985663;28;20038;-44
2020/12/11 04:38:50;;;;;;;1.67;0.88;;;;;;;13.95;59.43;100297.53;4972726;28;20138;-42
2020/12/11 04:41:18;;;;;;;0.82;0.77;;;;;;;13.97;59.94;100300.81;4973133;28;20043;-46
2020/12/11 04:43:45;;;;;;;1.13;0.98;;;;;;;13.90;61.23;100296.75;4989326;28;20094;-44
2020/12/11 04:46:11;;;;;;;0.45;0.32;;;;;;;13.89;61.42;100287.06;4990439;28;20062;-44
2020/12/11 04:48:37;;;;;;;3.15;1.75;;;;;;;13.88;61.70;100288.13;4988908;28;20137;-43
2020/12/11 04:51:02;;;;;;;10.23;1.75;;;;;;;13.92;61.49;100287.34;4989748;28;20086;-43
2020/12/11 04:53:33;;;;;;;10.20;1.30;;;;;;;13.87;61.97;100283.84;4989213;28;20038;-44
2020/12/11 04:56:00;;;;;;;8.25;1.05;;;;;;;13.87;62.14;100291.94;4989970;28;20041;-43
2020/12/11 04:58:28;;;;;;;0.77;0.47;;;;;;;13.85;59.60;100283.28;4988980;28;20399;-44
2020/12/11 05:01:00;;;;;;;1.55;0.60;;;;;;;13.89;60.46;100277.09;4989998;28;20043;-44
2020/12/11 05:03:29;;;;;;;0.65;0.40;;;;;;;13.90;59.40;100276.03;4988219;28;20034;-46
2020/12/11 05:05:55;;;;;;;7.55;1.98;;;;;;;13.84;60.18;100277.09;4989841;28;20058;-46
2020/12/11 05:08:21;;;;;;;2.70;0.75;;;;;;;13.84;60.19;100279.78;4986603;28;20057;-43
2020/12/11 05:10:47;;;;;;;11.45;2.08;;;;;;;13.89;61.15;100276.28;4981195;28;20050;-45
2020/12/11 05:13:23;;;;;;;2.42;0.88;;;;;;;13.85;61.86;100265.25;4973626;28;20035;-43
2020/12/11 05:16:09;;;;;;;4.13;1.02;;;;;;;13.86;61.95;100258.75;4973469;28;20046;-42
2020/12/11 05:18:35;;;;;;;4.00;1.35;;;;;;;13.89;62.27;100254.72;4974377;28;20458;-44
2020/12/11 05:21:15;;;;;;;2.05;0.70;;;;;;;13.82;62.97;100255.00;4978253;28;20496;-43
2020/12/11 05:23:59;;;;;;;4.85;1.40;;;;;;;13.85;62.95;100259.03;4974554;28;20101;-45
2020/12/11 05:26:34;;;;;;;2.55;1.05;;;;;;;13.82;63.12;100259.59;4974580;28;20035;-43
2020/12/11 05:29:02;;;;;;;0.82;0.60;;;;;;;13.81;63.15;100264.16;4973539;28;20097;-45
2020/12/11 05:31:28;;;;;;;2.17;1.05;;;;;;;13.78;62.95;100248.56;4974189;28;20488;-43
2020/12/11 05:34:05;;;;;;;2.25;0.50;;;;;;;13.80;63.37;100246.41;4973448;28;20034;-48
2020/12/11 05:37:00;;;;;;;5.57;2.00;;;;;;;13.84;63.37;100260.13;4974211;28;20070;-43
2020/12/11 05:39:28;;;;;;;2.15;1.73;;;;;;;13.78;63.47;100260.13;4988051;28;20133;-42
2020/12/11 05:41:54;;;;;;;2.35;0.52;;;;;;;13.84;63.57;100247.44;4989722;28;20105;-45
2020/12/11 05:44:27;;;;;;;4.78;1.08;;;;;;;13.82;63.48;100246.13;4989622;28;20034;-44
2020/12/11 05:46:54;;;;;;;4.30;1.30;;;;;;;13.85;63.41;100249.09;4973466;28;20094;-43
2020/12/11 05:49:29;;;;;;;8.98;1.10;;;;;;;13.89;63.22;100247.44;4984703;28;20088;-45
2020/12/11 05:52:12;;;;;;;3.28;0.80;;;;;;;13.89;62.18;100252.03;4977672;28;20432;-46
2020/12/11 05:54:54;;;;;;;0.80;0.55;;;;;;;13.90;62.62;100234.78;4985725;28;20403;-45
2020/12/11 05:57:21;;;;;;;2.95;0.75;;;;;;;13.94;62.53;100252.81;4976392;28;20034;-45
2020/12/11 05:59:47;;;;;;;3.08;1.23;;;;;;;13.95;62.36;100257.13;4973663;28;20035;-43
2020/12/11 06:02:17;;;;;;;1.58;0.80;;;;;;;14.01;62.37;100255.25;4975431;28;20373;-42
2020/12/11 06:04:44;;;;;;;1.38;0.77;;;;;;;14.00;62.86;100256.31;4988556;28;20026;-43
2020/12/11 06:07:12;;;;;;;1.90;1.13;;;;;;;13.94;63.30;100247.44;4977374;28;20035;-45
2020/12/11 06:09:39;;;;;;;2.17;0.73;;;;;;;13.97;63.02;100241.50;4974158;28;20501;-45
2020/12/11 06:12:06;;;;;;;1.98;0.95;;;;;;;14.06;63.13;100247.13;4973381;28;20053;-43
2020/12/11 06:15:03;;;;;;;5.53;2.15;;;;;;;14.04;63.37;100237.69;4974227;28;20066;-43
2020/12/11 06:17:33;;;;;;;2.03;0.55;;;;;;;14.02;63.13;100232.56;4974522;28;20043;-42
2020/12/11 06:20:02;;;;;;;1.58;0.65;;;;;;;14.10;62.90;100234.72;4973459;28;20035;-44
2020/12/11 06:22:28;;;;;;;9.32;1.13;;;;;;;14.17;62.46;100227.13;4974070;28;20038;-47
2020/12/11 06:24:53;;;;;;;3.53;1.08;;;;;;;14.13;62.52;100225.25;4973095;28;20049;-43
2020/12/11 06:27:30;;;;;;;5.07;0.98;;;;;;;14.12;62.45;100215.56;4974299;28;20475;-44
2020/12/11 06:29:56;;;;;;;1.13;0.52;;;;;;;14.11;63.56;100205.84;4976517;28;20043;-44
2020/12/11 06:32:32;;;;;;;3.60;0.50;;;;;;;14.08;63.86;100211.81;4977178;28;20599;-43
2020/12/11 06:35:13;;;;;;;1.25;0.38;;;;;;;14.05;64.27;100205.09;4983357;28;20085;-44
2020/12/11 06:37:40;;;;;;;9.90;1.65;;;;;;;14.06;63.74;100195.09;5005222;28;20042;-47
2020/12/11 06:40:06;;;;;;;0.40;0.40;;;;;;;14.04;64.28;100186.47;4992346;28;20057;-47
2020/12/11 06:42:35;;;;;;;1.90;0.73;;;;;;;13.93;65.44;100174.94;4991277;28;20415;-42
2020/12/11 06:45:26;;;;;;;1.52;1.30;;;;;;;13.89;65.29;100158.50;4992498;28;20050;-43
2020/12/11 06:47:54;;;;;;;2.85;0.63;;;;;;;13.94;65.32;100160.41;4992708;28;20035;-43
2020/12/11 06:50:24;;;;;;;6.05;0.98;;;;;;;13.85;65.92;100168.25;4985552;28;20058;-45
2020/12/11 06:52:50;;;;;;;4.57;1.63;;;;;;;13.92;65.39;100162.53;4979120;28;20038;-43
2020/12/11 06:55:15;;;;;;;3.40;1.88;;;;;;;13.83;65.51;100156.91;4987454;28;20058;-46
2020/12/11 06:57:43;;;;;;;4.70;0.77;;;;;;;13.86;65.38;100158.25;4989532;28;20578;-43
2020/12/11 07:00:34;;;;;;;5.00;1.30;;;;;;;14.08;64.89;100144.44;4981181;28;20039;-43
2020/12/11 07:03:20;;;;;;;2.38;1.50;;;;;;;14.01;64.73;100125.88;4981732;28;20041;-44
2020/12/11 07:05:55;;;;;;;3.45;1.02;;;;;;;13.92;64.73;100122.94;4992344;28;20403;-46
2020/12/11 07:08:20;;;;;;;3.20;1.20;;;;;;;13.80;65.44;100127.84;4992014;28;20034;-46
2020/12/11 07:10:46;;;;;;;4.82;1.08;;;;;;;13.86;65.41;100129.41;4992128;28;20065;-42
2020/12/11 07:13:12;;;;;;;0.43;0.25;;;;;;;13.97;64.75;100124.78;4991209;28;20042;-43
2020/12/11 07:15:39;;;;;;;4.75;0.80;;;;;;;14.05;64.64;100128.81;4990802;28;20034;-43
2020/12/11 07:18:12;;;;;;;1.55;1.00;;;;;;;14.16;64.14;100122.28;4976722;28;20065;-43
2020/12/11 07:20:38;;;;;;;13.45;1.65;;;;;;;14.13;63.52;100106.63;4976951;28;20038;-47
2020/12/11 07:23:05;;;;;;;4.25;2.38;;;;;;;14.13;63.91;100082.38;4975954;28;20046;-44
2020/12/11 07:25:35;;;;;;;0.80;0.63;;;;;;;14.14;64.88;100041.66;4977307;28;20035;-43
2020/12/11 07:28:02;;;;;;;1.70;0.90;;;;;;;14.30;64.57;100050.44;4976016;28;20634;-43
2020/12/11 07:30:27;;;;;;;2.65;1.40;;;;;;;14.18;65.47;100075.09;4976582;28;20514;-43
2020/12/11 07:32:54;;;;;;;1.05;0.75;;;;;;;14.24;66.30;100075.84;4976186;28;20023;-44
2020/12/11 07:35:21;;;;;;;2.47;1.30;;;;;;;14.19;66.20;100047.03;4976501;28;20465;-46
2020/12/11 07:37:52;;;;;;;2.85;1.27;;;;;;;14.20;66.80;100074.81;4975841;28;20035;-45
2020/12/11 07:40:18;;;;;;;5.53;1.27;;;;;;;14.21;66.52;100046.75;4976148;28;20113;-45
2020/12/11 07:42:44;;;;;;;6.38;2.63;;;;;;;14.12;67.54;100038.44;4976724;28;20685;-42
2020/12/11 07:45:10;;;;;;;1.88;1.00;;;;;;;14.11;67.69;100044.13;4976023;28;20470;-42
2020/12/11 07:47:35;;;;;;;9.95;1.92;;;;;;;14.08;67.71;100023.13;4976631;28;20034;-44
2020/12/11 07:50:07;;;;;;;8.70;2.35;;;;;;;14.12;67.77;100033.06;4981881;28;20062;-44
2020/12/11 07:52:33;;;;;;;4.07;1.27;;;;;;;14.21;68.59;100048.66;4976687;28;20066;-46
2020/12/11 07:54:58;;;;;;;2.53;0.70;;;;;;;14.21;68.67;100048.66;4975852;28;20074;-43
2020/12/11 07:57:24;;;;;;;12.27;1.92;;;;;;;14.24;68.96;100046.19;4982101;28;20141;-46
2020/12/11 07:59:55;;;;;;;2.90;1.38;;;;;;;14.21;69.77;100073.72;4985190;28;20034;-43
2020/12/11 08:02:23;;;;;;;4.97;2.10;;;;;;;14.22;70.03;100069.94;4990324;28;20117;-42
2020/12/11 08:04:48;;;;;;;4.75;1.58;;;;;;;14.21;69.97;100083.69;4975666;28;20039;-42
2020/12/11 08:07:23;;;;;;;2.35;1.20;;;;;;;14.23;70.14;100098.50;4975330;28;20029;-41
2020/12/11 08:09:49;;;;;;;2.00;1.65;;;;;;;14.27;70.69;100110.34;4984117;28;20049;-44
2020/12/11 08:12:19;;;;;;;2.38;0.88;;;;;;;14.26;70.77;100118.72;4992144;28;20026;-44
2020/12/11 08:14:45;;;;;;;7.15;2.13;;;;;;;14.31;71.12;100126.78;4988539;28;20046;-42
2020/12/11 08:17:12;;;;;;;4.70;2.42;;;;;;;14.31;72.19;100116.00;4976580;28;20391;-42
2020/12/11 08:19:38;;;;;;;8.88;3.78;;;;;;;14.29;71.95;100121.66;4974586;28;20061;-43
2020/12/11 08:22:14;;;;;;;6.97;4.75;;;;;;;14.26;73.28;100114.13;4974175;28;20114;-42
2020/12/11 08:24:40;;;;;;;7.28;3.15;;;;;;;14.27;74.24;100120.31;4974988;28;20044;-49
2020/12/11 08:27:07;;;;;;;8.10;6.72;;;;;;;14.27;74.18;100120.31;4973828;28;20034;-46
2020/12/11 08:29:32;;;;;;;7.55;4.35;;;;;;;14.30;74.88;100111.66;4975142;28;20061;-44
2020/12/11 08:31:58;;;;;;;12.52;6.20;;;;;;;14.35;74.10;100127.81;4974790;28;20459;-42
2020/12/11 08:34:32;;;;;;;9.57;3.63;;;;;;;14.47;73.11;100125.59;4976018;28;20046;-47
2020/12/11 08:37:03;;;;;;;6.90;1.58;;;;;;;14.41;72.87;100115.94;4975087;28;20034;-44
2020/12/11 08:39:29;;;;;;;26.33;9.82;;;;;;;14.46;74.88;100115.06;4976070;28;20034;-43
2020/12/11 08:50:02;;;;;;;13.30;5.30;;;;;;;14.52;74.48;100122.84;4973840;28;20070;-42
2020/12/11 08:52:28;;;;;;;4.55;3.03;;;;;;;14.62;75.65;100122.03;4975437;28;20476;-42
2020/12/11 08:54:54;;;;;;;8.43;2.13;;;;;;;14.61;75.32;100125.00;4974822;28;20034;-42
2020/12/11 08:57:19;;;;;;;6.65;2.58;;;;;;;14.64;75.87;100114.44;4975099;28;20099;-42
2020/12/11 08:59:45;;;;;;;2.70;1.33;;;;;;;14.70;76.09;100121.41;4975244;28;20439;-42
2020/12/11 09:02:10;;;;;;;4.28;1.60;;;;;;;14.71;74.82;100116.84;4974811;28;20042;-43
2020/12/11 09:04:36;;;;;;;3.13;1.50;;;;;;;14.80;75.50;100114.34;4975348;28;20074;-45
2020/12/11 09:07:01;;;;;;;3.22;1.60;;;;;;;14.85;75.46;100111.56;4974376;28;20030;-42
2020/12/11 09:09:27;;;;;;;6.25;2.00;;;;;;;14.87;75.22;100110.22;4975349;28;20034;-41
2020/12/11 09:11:52;;;;;;;11.27;6.90;;;;;;;14.94;75.44;100123.38;4979575;28;20122;-42
2020/12/11 09:14:17;;;;;;;11.90;7.47;;;;;;;15.00;75.61;100126.84;4974365;28;20035;-46
2020/12/11 09:16:43;;;;;;;8.63;6.35;;;;;;;14.99;76.08;100126.03;4974921;28;20172;-42
2020/12/11 09:19:10;;;;;;;18.23;3.28;;;;;;;14.91;76.86;100116.66;4974489;28;20514;-45
2020/12/11 09:21:37;;;;;;;7.25;2.97;;;;;;;14.90;76.74;100096.16;4974994;28;20082;-43
2020/12/11 09:24:02;;;;;;;4.72;3.08;;;;;;;14.82;77.85;100068.97;4974252;28;20121;-41
2020/12/11 09:26:30;;;;;;;4.10;2.75;;;;;;;14.84;77.62;100048.69;4975242;28;20113;-42
2020/12/11 09:29:05;;;;;;;3.80;2.08;;;;;;;14.77;78.67;100048.22;4974585;28;20383;-44
2020/12/11 09:31:31;;;;;;;8.98;3.83;;;;;;;14.87;77.59;100060.84;4975252;28;20093;-42
2020/12/11 09:33:57;;;;;;;4.25;1.45;;;;;;;14.97;77.63;100074.25;4974145;28;20031;-46
2020/12/11 09:36:24;;;;;;;6.95;2.88;;;;;;;15.02;78.19;100065.25;4974712;28;20074;-44
2020/12/11 09:38:51;;;;;;;8.68;2.42;;;;;;;14.92;78.89;100056.19;4973861;28;20101;-41
2020/12/11 09:41:19;;;;;;;5.32;1.90;;;;;;;14.96;77.85;100061.03;4974245;28;20043;-45
2020/12/11 09:54:13;;;;;;;;;;;;;;;14.99;76.76;100039.66;4974758;28;20053;-42
2020/12/11 09:56:39;;;;;;;3.13;1.80;;;;;;;14.95;78.47;100057.50;4974764;28;20498;-44
2020/12/11 09:59:08;;;;;;;3.85;1.42;;;;;;;14.92;78.59;100064.28;4973985;28;20043;-46
2020/12/11 10:04:11;;;;;;;13.05;3.15;;;;;;;15.02;78.23;100052.56;4977872;28;20073;-45
2020/12/11 10:06:37;;;;;;;2.00;1.45;;;;;;;15.09;78.09;100044.13;4978456;28;20062;-42
2020/12/11 10:09:03;;;;;;;5.28;2.35;;;;;;;15.09;79.17;100042.25;4977538;28;20031;-47
2020/12/11 10:11:28;;;;;;;2.00;1.50;;;;;;;15.17;77.70;100054.31;4978222;28;20038;-44
2020/12/11 10:14:10;;;;;;;3.67;3.28;;;;;;;15.23;78.91;100049.66;4977656;28;20046;-44
2020/12/11 10:16:35;;;;;;;5.57;3.63;;;;;;;15.22;78.97;100039.97;4978651;28;20101;-43
2020/12/11 10:19:01;;;;;;;2.13;1.63;;;;;;;15.44;79.34;100051.03;4977650;28;20039;-44
2020/12/11 10:21:29;;;;;;;9.55;7.32;;;;;;;15.43;78.40;100024.31;4978418;28;20034;-42
2020/12/11 10:23:54;;;;;;;3.63;2.70;;;;;;;15.61;77.48;100001.13;4977559;28;20042;-42
2020/12/11 10:26:19;;;;;;;3.70;2.65;;;;;;;15.96;76.92;100017.97;4977550;28;20040;-43
2020/12/11 10:28:45;;;;;;;2.75;1.42;;;;;;;15.97;76.60;99981.72;4977916;28;20034;-42
2020/12/11 10:31:10;;;;;;;3.47;1.55;;;;;;;16.34;76.43;99983.56;4977225;28;20035;-43
2020/12/11 10:33:36;;;;;;;5.13;3.22;;;;;;;16.72;74.84;99996.19;4978018;28;20038;-45
2020/12/11 10:36:01;;;;;;;5.75;1.52;;;;;;;16.66;72.57;99979.25;4977062;28;20102;-43
2020/12/11 10:38:27;;;;;;;1.80;1.00;;;;;;;16.98;71.53;99994.63;5003106;28;20027;-46
2020/12/11 10:40:52;;;;;;;0.52;0.40;;;;;;;16.93;72.30;99992.00;4993265;28;20053;-47
2020/12/11 10:43:18;;;;;;;1.85;0.73;;;;;;;16.90;72.20;99991.81;4993289;28;20027;-45
2020/12/11 10:45:43;;;;;;;1.30;0.88;;;;;;;16.77;72.88;99990.69;4978084;28;20039;-46
2020/12/11 10:48:09;;;;;;;1.80;0.80;;;;;;;16.71;72.52;99987.25;4977094;28;20725;-46
2020/12/11 10:50:34;;;;;;;4.15;1.92;;;;;;;16.58;73.60;99991.53;4978150;28;20051;-43
2020/12/11 10:53:00;;;;;;;3.03;1.10;;;;;;;16.52;72.97;99986.53;4976749;28;20519;-46
2020/12/11 10:55:26;;;;;;;1.08;0.75;;;;;;;16.46;72.10;99972.25;4977981;28;20054;-42
2020/12/11 10:57:52;;;;;;;1.58;1.10;;;;;;;16.52;73.66;99975.72;4976840;28;20069;-42
2020/12/11 11:00:17;;;;;;;1.38;1.00;;;;;;;16.32;73.48;99961.44;4977136;28;20419;-49
2020/12/11 11:02:44;;;;;;;5.07;2.03;;;;;;;16.51;73.15;99964.06;4986927;28;20034;-43
2020/12/11 11:05:13;;;;;;;7.00;2.45;;;;;;;16.66;72.18;99943.25;4976580;28;20042;-42
2020/12/11 11:07:39;;;;;;;4.97;2.28;;;;;;;16.80;71.19;99944.84;4977384;28;20041;-44
2020/12/11 11:12:42;;;;;;;;;;;;;;;16.91;70.08;99952.81;4989982;28;20041;-44
2020/12/11 11:20:45;;;;;;;7.45;2.70;;;;;;;17.04;69.97;99948.50;4991472;28;20061;-42
2020/12/11 11:28:14;;;;;;;4.25;1.33;;;;;;;16.98;69.30;99953.22;4975876;28;20077;-43
2020/12/11 11:30:39;;;;;;;5.55;1.10;;;;;;;17.01;69.08;99948.00;4977022;28;20034;-47
2020/12/11 11:33:12;;;;;;;5.03;1.80;;;;;;;17.37;67.32;99952.69;4976406;28;20026;-43
2020/12/11 11:35:45;;;;;;;2.95;0.90;;;;;;;17.20;63.66;99952.50;4976894;28;20077;-46
2020/12/11 11:38:14;;;;;;;3.60;2.17;;;;;;;17.15;69.70;99929.03;4976012;28;20128;-44
2020/12/11 11:40:39;;;;;;;3.33;1.83;;;;;;;17.22;69.55;99927.84;4976908;28;20065;-45
2020/12/11 11:43:06;;;;;;;11.27;4.28;;;;;;;17.08;69.99;99931.34;4975670;28;20069;-43
2020/12/11 11:45:35;;;;;;;4.10;2.22;;;;;;;17.04;69.22;99943.06;4981524;28;20031;-50
2020/12/11 11:48:01;;;;;;;4.22;1.73;;;;;;;16.99;69.32;99931.25;4975683;28;20031;-43
2020/12/11 11:50:34;;;;;;;12.70;3.70;;;;;;;17.24;69.21;99921.00;4976430;28;20129;-44
2020/12/11 11:55:25;;;;;;;4.03;3.30;;;;;;;17.22;69.80;99934.03;4976259;28;20051;-47
2020/12/11 11:57:50;;;;;;;7.28;1.60;;;;;;;17.26;68.51;99931.53;4973793;28;20038;-48
2020/12/11 12:00:16;;;;;;;2.90;1.10;;;;;;;17.39;69.13;99927.97;4983974;28;20383;-44
2020/12/11 12:02:41;;;;;;;6.05;1.60;;;;;;;17.21;67.32;99943.25;4980705;28;20038;-45
2020/12/11 12:05:09;;;;;;;1.95;1.40;;;;;;;17.25;69.05;99919.09;4975126;28;20138;-46